sensor_id;sensor_type;location;lat;lon;timestamp;P1;durP1;ratioP1;P2;durP2;ratioP2
40623;SDS011;26325;48.594;11.650;2022-09-25T00:00:49;8.38;;;7.78;;
40623;SDS011;26325;48.594;11.650;2022-09-25T00:03:17;8.82;;;8.13;;
40623;SDS011;26325;48.594;11.650;2022-09-25T00:05:44;9.05;;;8.13;;
40623;SDS011;26325;48.594;11.650;2022-09-25T00:08:11;7.88;;;7.28;;
40623;SDS011;26325;48.594;11.650;2022-09-25T00:10:42;8.45;;;7.75;;
40623;SDS011;26325;48.594;11.650;2022-09-25T00:13:09;8.57;;;7.88;;
40623;SDS011;26325;48.594;11.650;2022-09-25T00:15:35;9.48;;;8.68;;
40623;SDS011;26325;48.594;11.650;2022-09-25T00:18:02;9.93;;;9.18;;
40623;SDS011;26325;48.594;11.650;2022-09-25T00:22:55;10.90;;;10.00;;
40623;SDS011;26325;48.594;11.650;2022-09-25T00:25:25;10.27;;;9.48;;
40623;SDS011;26325;48.594;11.650;2022-09-25T00:27:53;8.90;;;8.15;;
40623;SDS011;26325;48.594;11.650;2022-09-25T00:30:19;8.20;;;7.60;;
40623;SDS011;26325;48.594;11.650;2022-09-25T00:35:10;8.52;;;7.82;;
40623;SDS011;26325;48.594;11.650;2022-09-25T00:40:03;8.20;;;7.60;;
40623;SDS011;26325;48.594;11.650;2022-09-25T00:42:30;8.15;;;7.55;;
40623;SDS011;26325;48.594;11.650;2022-09-25T00:44:58;8.00;;;7.32;;
40623;SDS011;26325;48.594;11.650;2022-09-25T00:50:34;7.72;;;7.13;;
40623;SDS011;26325;48.594;11.650;2022-09-25T00:53:09;7.97;;;7.38;;
40623;SDS011;26325;48.594;11.650;2022-09-25T00:55:43;7.55;;;7.05;;
40623;SDS011;26325;48.594;11.650;2022-09-25T00:58:10;8.18;;;7.57;;
40623;SDS011;26325;48.594;11.650;2022-09-25T01:00:39;8.95;;;8.25;;
40623;SDS011;26325;48.594;11.650;2022-09-25T01:03:05;9.27;;;8.57;;
40623;SDS011;26325;48.594;11.650;2022-09-25T01:05:34;8.40;;;7.78;;
40623;SDS011;26325;48.594;11.650;2022-09-25T01:08:02;8.95;;;8.25;;
40623;SDS011;26325;48.594;11.650;2022-09-25T01:10:30;9.60;;;8.80;;
40623;SDS011;26325;48.594;11.650;2022-09-25T01:12:57;9.32;;;8.63;;
40623;SDS011;26325;48.594;11.650;2022-09-25T01:15:47;9.95;;;9.15;;
40623;SDS011;26325;48.594;11.650;2022-09-25T01:19:21;8.13;;;7.53;;
40623;SDS011;26325;48.594;11.650;2022-09-25T01:30:18;9.20;;;8.50;;
40623;SDS011;26325;48.594;11.650;2022-09-25T01:32:57;8.93;;;8.23;;
40623;SDS011;26325;48.594;11.650;2022-09-25T01:38:20;9.52;;;8.75;;
40623;SDS011;26325;48.594;11.650;2022-09-25T01:46:24;9.97;;;9.13;;
40623;SDS011;26325;48.594;11.650;2022-09-25T01:49:24;10.10;;;9.23;;
40623;SDS011;26325;48.594;11.650;2022-09-25T01:51:54;9.10;;;8.40;;
40623;SDS011;26325;48.594;11.650;2022-09-25T01:54:23;9.13;;;8.43;;
40623;SDS011;26325;48.594;11.650;2022-09-25T01:56:57;9.65;;;8.85;;
40623;SDS011;26325;48.594;11.650;2022-09-25T01:59:36;8.43;;;7.72;;
40623;SDS011;26325;48.594;11.650;2022-09-25T02:02:08;9.13;;;8.43;;
40623;SDS011;26325;48.594;11.650;2022-09-25T02:04:40;8.05;;;7.45;;
40623;SDS011;26325;48.594;11.650;2022-09-25T02:07:17;9.52;;;8.73;;
40623;SDS011;26325;48.594;11.650;2022-09-25T02:09:49;10.00;;;9.10;;
40623;SDS011;26325;48.594;11.650;2022-09-25T02:12:23;12.57;;;11.25;;
40623;SDS011;26325;48.594;11.650;2022-09-25T02:15:07;10.32;;;9.43;;
40623;SDS011;26325;48.594;11.650;2022-09-25T02:17:50;10.30;;;9.50;;
40623;SDS011;26325;48.594;11.650;2022-09-25T02:20:38;11.15;;;10.15;;
40623;SDS011;26325;48.594;11.650;2022-09-25T02:26:18;14.73;;;13.43;;
40623;SDS011;26325;48.594;11.650;2022-09-25T02:28:53;13.00;;;11.90;;
40623;SDS011;26325;48.594;11.650;2022-09-25T02:31:26;14.02;;;12.93;;
40623;SDS011;26325;48.594;11.650;2022-09-25T02:34:00;15.10;;;13.85;;
40623;SDS011;26325;48.594;11.650;2022-09-25T02:36:27;14.85;;;13.65;;
40623;SDS011;26325;48.594;11.650;2022-09-25T02:49:46;14.32;;;13.13;;
40623;SDS011;26325;48.594;11.650;2022-09-25T02:52:25;14.60;;;13.27;;
40623;SDS011;26325;48.594;11.650;2022-09-25T02:55:11;14.60;;;13.30;;
40623;SDS011;26325;48.594;11.650;2022-09-25T02:58:00;14.85;;;13.45;;
40623;SDS011;26325;48.594;11.650;2022-09-25T03:00:27;13.38;;;12.18;;
40623;SDS011;26325;48.594;11.650;2022-09-25T03:02:55;14.80;;;13.50;;
40623;SDS011;26325;48.594;11.650;2022-09-25T03:05:23;15.07;;;13.68;;
40623;SDS011;26325;48.594;11.650;2022-09-25T03:07:53;13.98;;;12.77;;
40623;SDS011;26325;48.594;11.650;2022-09-25T03:10:40;14.02;;;12.82;;
40623;SDS011;26325;48.594;11.650;2022-09-25T03:13:14;13.50;;;12.35;;
40623;SDS011;26325;48.594;11.650;2022-09-25T03:15:50;15.38;;;13.98;;
40623;SDS011;26325;48.594;11.650;2022-09-25T03:18:22;15.57;;;14.15;;
40623;SDS011;26325;48.594;11.650;2022-09-25T03:20:50;18.45;;;16.75;;
40623;SDS011;26325;48.594;11.650;2022-09-25T03:23:17;16.40;;;14.85;;
40623;SDS011;26325;48.594;11.650;2022-09-25T03:28:09;17.30;;;15.73;;
40623;SDS011;26325;48.594;11.650;2022-09-25T03:30:39;16.65;;;14.95;;
40623;SDS011;26325;48.594;11.650;2022-09-25T03:33:14;16.88;;;15.27;;
40623;SDS011;26325;48.594;11.650;2022-09-25T03:35:44;18.30;;;16.50;;
40623;SDS011;26325;48.594;11.650;2022-09-25T03:38:09;18.55;;;16.85;;
40623;SDS011;26325;48.594;11.650;2022-09-25T03:40:38;17.27;;;15.77;;
40623;SDS011;26325;48.594;11.650;2022-09-25T03:45:29;16.63;;;15.10;;
40623;SDS011;26325;48.594;11.650;2022-09-25T03:50:20;17.50;;;15.90;;
40623;SDS011;26325;48.594;11.650;2022-09-25T03:55:14;17.10;;;15.50;;
40623;SDS011;26325;48.594;11.650;2022-09-25T03:57:42;18.25;;;16.65;;
40623;SDS011;26325;48.594;11.650;2022-09-25T04:02:33;16.50;;;15.00;;
40623;SDS011;26325;48.594;11.650;2022-09-25T04:07:27;16.95;;;15.43;;
40623;SDS011;26325;48.594;11.650;2022-09-25T04:12:21;16.45;;;14.95;;
40623;SDS011;26325;48.594;11.650;2022-09-25T04:19:39;18.67;;;16.98;;
40623;SDS011;26325;48.594;11.650;2022-09-25T04:24:33;17.50;;;16.00;;
40623;SDS011;26325;48.594;11.650;2022-09-25T04:27:19;17.38;;;15.88;;
40623;SDS011;26325;48.594;11.650;2022-09-25T04:29:47;16.95;;;15.55;;
40623;SDS011;26325;48.594;11.650;2022-09-25T04:32:15;16.45;;;15.05;;
40623;SDS011;26325;48.594;11.650;2022-09-25T04:34:59;15.43;;;14.13;;
40623;SDS011;26325;48.594;11.650;2022-09-25T04:39:54;16.25;;;14.85;;
40623;SDS011;26325;48.594;11.650;2022-09-25T04:42:21;17.80;;;16.20;;
40623;SDS011;26325;48.594;11.650;2022-09-25T04:44:55;19.90;;;18.20;;
40623;SDS011;26325;48.594;11.650;2022-09-25T04:47:22;21.30;;;19.40;;
40623;SDS011;26325;48.594;11.650;2022-09-25T04:49:52;19.17;;;17.55;;
40623;SDS011;26325;48.594;11.650;2022-09-25T04:54:44;17.13;;;15.63;;
40623;SDS011;26325;48.594;11.650;2022-09-25T04:57:18;18.92;;;17.35;;
40623;SDS011;26325;48.594;11.650;2022-09-25T04:59:44;18.35;;;16.83;;
40623;SDS011;26325;48.594;11.650;2022-09-25T05:02:14;16.75;;;15.38;;
40623;SDS011;26325;48.594;11.650;2022-09-25T05:04:39;16.58;;;15.18;;
40623;SDS011;26325;48.594;11.650;2022-09-25T05:09:31;22.83;;;20.92;;
40623;SDS011;26325;48.594;11.650;2022-09-25T05:14:23;19.98;;;18.27;;
40623;SDS011;26325;48.594;11.650;2022-09-25T05:16:51;18.13;;;16.63;;
40623;SDS011;26325;48.594;11.650;2022-09-25T05:19:17;18.45;;;16.95;;
40623;SDS011;26325;48.594;11.650;2022-09-25T05:21:44;18.65;;;17.05;;
40623;SDS011;26325;48.594;11.650;2022-09-25T05:24:12;18.15;;;16.65;;
40623;SDS011;26325;48.594;11.650;2022-09-25T05:26:40;16.92;;;15.52;;
40623;SDS011;26325;48.594;11.650;2022-09-25T05:31:31;15.38;;;14.07;;
40623;SDS011;26325;48.594;11.650;2022-09-25T05:36:22;17.85;;;16.35;;
40623;SDS011;26325;48.594;11.650;2022-09-25T05:41:14;17.38;;;15.95;;
40623;SDS011;26325;48.594;11.650;2022-09-25T05:46:08;16.65;;;15.25;;
40623;SDS011;26325;48.594;11.650;2022-09-25T05:48:36;19.05;;;17.35;;
40623;SDS011;26325;48.594;11.650;2022-09-25T05:51:05;18.38;;;16.80;;
40623;SDS011;26325;48.594;11.650;2022-09-25T05:55:58;16.48;;;15.07;;
40623;SDS011;26325;48.594;11.650;2022-09-25T05:58:29;15.68;;;14.38;;
40623;SDS011;26325;48.594;11.650;2022-09-25T06:00:59;16.17;;;14.77;;
40623;SDS011;26325;48.594;11.650;2022-09-25T06:03:26;17.95;;;16.40;;
40623;SDS011;26325;48.594;11.650;2022-09-25T06:06:02;19.17;;;17.48;;
40623;SDS011;26325;48.594;11.650;2022-09-25T06:08:30;17.65;;;16.15;;
40623;SDS011;26325;48.594;11.650;2022-09-25T06:13:24;22.02;;;19.92;;
40623;SDS011;26325;48.594;11.650;2022-09-25T06:15:50;22.67;;;20.42;;
40623;SDS011;26325;48.594;11.650;2022-09-25T06:18:20;20.67;;;18.73;;
40623;SDS011;26325;48.594;11.650;2022-09-25T06:20:48;24.15;;;19.13;;
40623;SDS011;26325;48.594;11.650;2022-09-25T06:23:14;19.27;;;17.50;;
40623;SDS011;26325;48.594;11.650;2022-09-25T06:25:44;21.70;;;19.63;;
40623;SDS011;26325;48.594;11.650;2022-09-25T06:28:10;22.00;;;19.63;;
40623;SDS011;26325;48.594;11.650;2022-09-25T06:30:36;21.38;;;19.40;;
40623;SDS011;26325;48.594;11.650;2022-09-25T06:33:04;20.17;;;18.42;;
40623;SDS011;26325;48.594;11.650;2022-09-25T06:35:47;18.65;;;17.05;;
40623;SDS011;26325;48.594;11.650;2022-09-25T06:38:15;18.95;;;17.35;;
40623;SDS011;26325;48.594;11.650;2022-09-25T06:40:41;19.75;;;18.02;;
40623;SDS011;26325;48.594;11.650;2022-09-25T06:43:14;17.67;;;16.08;;
40623;SDS011;26325;48.594;11.650;2022-09-25T06:45:43;14.95;;;13.68;;
40623;SDS011;26325;48.594;11.650;2022-09-25T06:48:12;15.77;;;14.38;;
40623;SDS011;26325;48.594;11.650;2022-09-25T06:50:50;16.58;;;15.18;;
40623;SDS011;26325;48.594;11.650;2022-09-25T06:53:19;15.77;;;14.38;;
40623;SDS011;26325;48.594;11.650;2022-09-25T06:55:45;15.35;;;14.05;;
40623;SDS011;26325;48.594;11.650;2022-09-25T07:00:49;15.40;;;14.02;;
40623;SDS011;26325;48.594;11.650;2022-09-25T07:03:16;14.23;;;13.02;;
40623;SDS011;26325;48.594;11.650;2022-09-25T07:06:04;16.75;;;15.23;;
40623;SDS011;26325;48.594;11.650;2022-09-25T07:08:35;16.52;;;15.13;;
40623;SDS011;26325;48.594;11.650;2022-09-25T07:11:01;16.38;;;14.95;;
40623;SDS011;26325;48.594;11.650;2022-09-25T07:13:32;17.73;;;16.17;;
40623;SDS011;26325;48.594;11.650;2022-09-25T07:16:04;15.73;;;14.32;;
40623;SDS011;26325;48.594;11.650;2022-09-25T07:18:31;17.33;;;15.73;;
40623;SDS011;26325;48.594;11.650;2022-09-25T07:21:02;16.77;;;15.27;;
40623;SDS011;26325;48.594;11.650;2022-09-25T07:23:30;22.17;;;20.13;;
40623;SDS011;26325;48.594;11.650;2022-09-25T07:26:11;21.70;;;19.60;;
40623;SDS011;26325;48.594;11.650;2022-09-25T07:29:01;23.30;;;20.95;;
40623;SDS011;26325;48.594;11.650;2022-09-25T07:31:30;29.35;;;26.60;;
40623;SDS011;26325;48.594;11.650;2022-09-25T07:33:57;23.77;;;21.63;;
40623;SDS011;26325;48.594;11.650;2022-09-25T07:36:27;22.20;;;20.20;;
40623;SDS011;26325;48.594;11.650;2022-09-25T07:38:53;18.98;;;17.23;;
40623;SDS011;26325;48.594;11.650;2022-09-25T07:43:50;16.13;;;14.73;;
40623;SDS011;26325;48.594;11.650;2022-09-25T07:46:16;16.90;;;15.45;;
40623;SDS011;26325;48.594;11.650;2022-09-25T07:48:47;21.23;;;19.33;;
40623;SDS011;26325;48.594;11.650;2022-09-25T07:51:14;17.45;;;15.95;;
40623;SDS011;26325;48.594;11.650;2022-09-25T07:56:05;19.35;;;17.65;;
40623;SDS011;26325;48.594;11.650;2022-09-25T08:01:00;17.70;;;16.15;;
40623;SDS011;26325;48.594;11.650;2022-09-25T08:03:28;19.25;;;17.60;;
40623;SDS011;26325;48.594;11.650;2022-09-25T08:08:25;21.77;;;19.77;;
40623;SDS011;26325;48.594;11.650;2022-09-25T08:11:06;22.02;;;20.02;;
40623;SDS011;26325;48.594;11.650;2022-09-25T08:13:33;18.73;;;16.92;;
40623;SDS011;26325;48.594;11.650;2022-09-25T08:16:02;16.85;;;15.45;;
40623;SDS011;26325;48.594;11.650;2022-09-25T08:18:32;17.00;;;15.50;;
40623;SDS011;26325;48.594;11.650;2022-09-25T08:23:27;18.30;;;16.63;;
40623;SDS011;26325;48.594;11.650;2022-09-25T08:25:56;17.98;;;16.45;;
40623;SDS011;26325;48.594;11.650;2022-09-25T08:30:49;15.38;;;14.07;;
40623;SDS011;26325;48.594;11.650;2022-09-25T08:33:15;14.90;;;13.70;;
40623;SDS011;26325;48.594;11.650;2022-09-25T08:38:07;16.25;;;14.85;;
40623;SDS011;26325;48.594;11.650;2022-09-25T08:41:11;15.68;;;14.18;;
40623;SDS011;26325;48.594;11.650;2022-09-25T08:46:48;12.88;;;11.77;;
40623;SDS011;26325;48.594;11.650;2022-09-25T08:49:40;18.02;;;16.27;;
40623;SDS011;26325;48.594;11.650;2022-09-25T08:52:15;14.25;;;12.95;;
40623;SDS011;26325;48.594;11.650;2022-09-25T08:54:43;14.95;;;13.65;;
40623;SDS011;26325;48.594;11.650;2022-09-25T08:59:51;15.13;;;13.63;;
40623;SDS011;26325;48.594;11.650;2022-09-25T09:02:27;16.75;;;15.35;;
40623;SDS011;26325;48.594;11.650;2022-09-25T09:05:35;15.32;;;14.05;;
40623;SDS011;26325;48.594;11.650;2022-09-25T09:08:20;16.15;;;14.77;;
40623;SDS011;26325;48.594;11.650;2022-09-25T09:10:58;15.60;;;14.25;;
40623;SDS011;26325;48.594;11.650;2022-09-25T09:13:53;15.35;;;14.05;;
40623;SDS011;26325;48.594;11.650;2022-09-25T09:18:50;13.93;;;12.73;;
40623;SDS011;26325;48.594;11.650;2022-09-25T09:24:15;13.52;;;12.43;;
40623;SDS011;26325;48.594;11.650;2022-09-25T09:30:08;13.35;;;12.15;;
40623;SDS011;26325;48.594;11.650;2022-09-25T09:33:15;15.07;;;13.77;;
40623;SDS011;26325;48.594;11.650;2022-09-25T09:41:47;13.98;;;12.80;;
40623;SDS011;26325;48.594;11.650;2022-09-25T09:44:45;13.75;;;12.55;;
40623;SDS011;26325;48.594;11.650;2022-09-25T09:49:56;17.95;;;16.45;;
40623;SDS011;26325;48.594;11.650;2022-09-25T09:52:38;17.10;;;15.70;;
40623;SDS011;26325;48.594;11.650;2022-09-25T09:57:49;14.35;;;13.10;;
40623;SDS011;26325;48.594;11.650;2022-09-25T10:00:19;14.85;;;13.55;;
40623;SDS011;26325;48.594;11.650;2022-09-25T10:03:03;15.35;;;13.95;;
40623;SDS011;26325;48.594;11.650;2022-09-25T10:05:58;17.02;;;15.35;;
40623;SDS011;26325;48.594;11.650;2022-09-25T10:08:25;15.98;;;14.48;;
40623;SDS011;26325;48.594;11.650;2022-09-25T10:13:29;16.27;;;14.77;;
40623;SDS011;26325;48.594;11.650;2022-09-25T10:16:09;16.92;;;15.30;;
40623;SDS011;26325;48.594;11.650;2022-09-25T10:19:18;18.77;;;16.95;;
40623;SDS011;26325;48.594;11.650;2022-09-25T10:22:06;16.40;;;14.90;;
40623;SDS011;26325;48.594;11.650;2022-09-25T10:24:55;14.15;;;12.82;;
40623;SDS011;26325;48.594;11.650;2022-09-25T10:27:36;13.85;;;12.65;;
40623;SDS011;26325;48.594;11.650;2022-09-25T10:32:55;14.07;;;12.73;;
40623;SDS011;26325;48.594;11.650;2022-09-25T10:35:41;12.52;;;11.43;;
40623;SDS011;26325;48.594;11.650;2022-09-25T10:38:45;14.13;;;12.82;;
40623;SDS011;26325;48.594;11.650;2022-09-25T10:41:15;17.98;;;16.27;;
40623;SDS011;26325;48.594;11.650;2022-09-25T10:46:30;14.00;;;12.70;;
40623;SDS011;26325;48.594;11.650;2022-09-25T10:49:19;13.07;;;11.88;;
40623;SDS011;26325;48.594;11.650;2022-09-25T10:52:07;11.43;;;10.43;;
40623;SDS011;26325;48.594;11.650;2022-09-25T10:54:34;13.07;;;11.77;;
40623;SDS011;26325;48.594;11.650;2022-09-25T10:57:02;12.95;;;11.75;;
40623;SDS011;26325;48.594;11.650;2022-09-25T10:59:49;10.68;;;9.68;;
40623;SDS011;26325;48.594;11.650;2022-09-25T11:02:31;11.48;;;10.38;;
40623;SDS011;26325;48.594;11.650;2022-09-25T11:05:03;11.85;;;10.85;;
40623;SDS011;26325;48.594;11.650;2022-09-25T11:07:36;12.23;;;11.15;;
40623;SDS011;26325;48.594;11.650;2022-09-25T11:10:02;13.50;;;12.40;;
40623;SDS011;26325;48.594;11.650;2022-09-25T11:12:28;10.52;;;9.70;;
40623;SDS011;26325;48.594;11.650;2022-09-25T11:17:38;11.13;;;10.13;;
40623;SDS011;26325;48.594;11.650;2022-09-25T11:20:32;9.15;;;8.45;;
40623;SDS011;26325;48.594;11.650;2022-09-25T11:31:19;10.35;;;9.50;;
40623;SDS011;26325;48.594;11.650;2022-09-25T11:33:55;11.85;;;10.75;;
40623;SDS011;26325;48.594;11.650;2022-09-25T11:36:31;11.95;;;10.85;;
40623;SDS011;26325;48.594;11.650;2022-09-25T11:39:08;12.50;;;11.30;;
40623;SDS011;26325;48.594;11.650;2022-09-25T11:42:04;12.52;;;11.35;;
40623;SDS011;26325;48.594;11.650;2022-09-25T11:44:57;12.90;;;11.77;;
40623;SDS011;26325;48.594;11.650;2022-09-25T11:47:31;12.77;;;11.63;;
40623;SDS011;26325;48.594;11.650;2022-09-25T12:02:14;17.33;;;15.82;;
40623;SDS011;26325;48.594;11.650;2022-09-25T12:11:10;14.10;;;12.85;;
40623;SDS011;26325;48.594;11.650;2022-09-25T12:14:01;12.90;;;11.70;;
40623;SDS011;26325;48.594;11.650;2022-09-25T12:19:45;11.82;;;10.82;;
40623;SDS011;26325;48.594;11.650;2022-09-25T12:22:38;12.65;;;11.45;;
40623;SDS011;26325;48.594;11.650;2022-09-25T12:43:11;9.90;;;9.10;;
40623;SDS011;26325;48.594;11.650;2022-09-25T12:50:56;8.70;;;8.02;;
40623;SDS011;26325;48.594;11.650;2022-09-25T12:53:38;8.77;;;8.18;;
40623;SDS011;26325;48.594;11.650;2022-09-25T12:56:13;9.38;;;8.65;;
40623;SDS011;26325;48.594;11.650;2022-09-25T12:58:46;8.32;;;7.70;;
40623;SDS011;26325;48.594;11.650;2022-09-25T13:10:25;6.78;;;6.28;;
40623;SDS011;26325;48.594;11.650;2022-09-25T13:13:17;7.18;;;6.68;;
40623;SDS011;26325;48.594;11.650;2022-09-25T13:15:48;8.10;;;7.40;;
40623;SDS011;26325;48.594;11.650;2022-09-25T13:18:20;6.82;;;6.28;;
40623;SDS011;26325;48.594;11.650;2022-09-25T13:20:52;7.82;;;7.22;;
40623;SDS011;26325;48.594;11.650;2022-09-25T13:23:34;7.30;;;6.80;;
40623;SDS011;26325;48.594;11.650;2022-09-25T13:26:17;9.65;;;8.95;;
40623;SDS011;26325;48.594;11.650;2022-09-25T13:28:51;6.97;;;6.40;;
40623;SDS011;26325;48.594;11.650;2022-09-25T13:34:03;6.53;;;6.03;;
40623;SDS011;26325;48.594;11.650;2022-09-25T13:39:19;7.25;;;6.72;;
40623;SDS011;26325;48.594;11.650;2022-09-25T13:50:32;7.78;;;7.20;;
40623;SDS011;26325;48.594;11.650;2022-09-25T14:00:58;7.18;;;6.57;;
40623;SDS011;26325;48.594;11.650;2022-09-25T14:06:15;5.72;;;5.32;;
40623;SDS011;26325;48.594;11.650;2022-09-25T14:08:45;6.10;;;5.60;;
40623;SDS011;26325;48.594;11.650;2022-09-25T14:11:14;5.05;;;4.75;;
40623;SDS011;26325;48.594;11.650;2022-09-25T14:13:43;5.55;;;5.18;;
40623;SDS011;26325;48.594;11.650;2022-09-25T14:16:32;5.70;;;5.30;;
40623;SDS011;26325;48.594;11.650;2022-09-25T14:19:02;5.53;;;5.13;;
40623;SDS011;26325;48.594;11.650;2022-09-25T14:21:30;6.68;;;6.18;;
40623;SDS011;26325;48.594;11.650;2022-09-25T14:24:31;6.20;;;5.75;;
40623;SDS011;26325;48.594;11.650;2022-09-25T14:26:58;5.07;;;4.68;;
40623;SDS011;26325;48.594;11.650;2022-09-25T14:29:40;6.40;;;6.00;;
40623;SDS011;26325;48.594;11.650;2022-09-25T14:32:25;6.63;;;6.13;;
40623;SDS011;26325;48.594;11.650;2022-09-25T14:37:54;5.03;;;4.72;;
40623;SDS011;26325;48.594;11.650;2022-09-25T14:40:52;6.05;;;5.63;;
40623;SDS011;26325;48.594;11.650;2022-09-25T14:49:27;6.03;;;5.53;;
40623;SDS011;26325;48.594;11.650;2022-09-25T14:52:07;5.33;;;4.93;;
40623;SDS011;26325;48.594;11.650;2022-09-25T14:54:39;5.45;;;5.10;;
40623;SDS011;26325;48.594;11.650;2022-09-25T14:57:08;5.57;;;5.20;;
40623;SDS011;26325;48.594;11.650;2022-09-25T14:59:46;5.32;;;4.43;;
40623;SDS011;26325;48.594;11.650;2022-09-25T15:02:37;5.95;;;5.55;;
40623;SDS011;26325;48.594;11.650;2022-09-25T15:05:17;5.88;;;5.45;;
40623;SDS011;26325;48.594;11.650;2022-09-25T15:08:28;6.55;;;6.05;;
40623;SDS011;26325;48.594;11.650;2022-09-25T15:11:08;5.13;;;4.72;;
40623;SDS011;26325;48.594;11.650;2022-09-25T15:13:34;5.30;;;4.90;;
40623;SDS011;26325;48.594;11.650;2022-09-25T15:15:59;5.88;;;5.38;;
40623;SDS011;26325;48.594;11.650;2022-09-25T15:18:50;4.80;;;4.40;;
40623;SDS011;26325;48.594;11.650;2022-09-25T15:21:32;4.43;;;4.13;;
40623;SDS011;26325;48.594;11.650;2022-09-25T15:24:09;5.00;;;4.60;;
40623;SDS011;26325;48.594;11.650;2022-09-25T15:26:43;5.53;;;5.13;;
40623;SDS011;26325;48.594;11.650;2022-09-25T15:29:19;4.40;;;4.00;;
40623;SDS011;26325;48.594;11.650;2022-09-25T15:31:47;4.88;;;4.40;;
40623;SDS011;26325;48.594;11.650;2022-09-25T15:34:26;4.82;;;4.43;;
40623;SDS011;26325;48.594;11.650;2022-09-25T15:37:15;4.38;;;4.07;;
40623;SDS011;26325;48.594;11.650;2022-09-25T15:39:53;4.43;;;4.13;;
40623;SDS011;26325;48.594;11.650;2022-09-25T15:42:19;4.13;;;3.83;;
40623;SDS011;26325;48.594;11.650;2022-09-25T15:44:46;4.20;;;3.90;;
40623;SDS011;26325;48.594;11.650;2022-09-25T15:50:12;4.20;;;3.90;;
40623;SDS011;26325;48.594;11.650;2022-09-25T15:52:48;4.38;;;4.07;;
40623;SDS011;26325;48.594;11.650;2022-09-25T15:55:17;4.03;;;3.72;;
40623;SDS011;26325;48.594;11.650;2022-09-25T15:57:46;5.32;;;4.93;;
40623;SDS011;26325;48.594;11.650;2022-09-25T16:00:22;5.72;;;5.22;;
40623;SDS011;26325;48.594;11.650;2022-09-25T16:03:15;5.60;;;5.10;;
40623;SDS011;26325;48.594;11.650;2022-09-25T16:06:03;5.85;;;5.32;;
40623;SDS011;26325;48.594;11.650;2022-09-25T16:08:33;7.65;;;6.95;;
40623;SDS011;26325;48.594;11.650;2022-09-25T16:11:19;6.40;;;5.88;;
40623;SDS011;26325;48.594;11.650;2022-09-25T16:14:11;6.03;;;5.53;;
40623;SDS011;26325;48.594;11.650;2022-09-25T16:16:45;5.43;;;5.03;;
40623;SDS011;26325;48.594;11.650;2022-09-25T16:19:39;5.68;;;5.18;;
40623;SDS011;26325;48.594;11.650;2022-09-25T16:22:16;4.78;;;4.38;;
40623;SDS011;26325;48.594;11.650;2022-09-25T16:24:49;5.20;;;4.70;;
40623;SDS011;26325;48.594;11.650;2022-09-25T16:27:30;4.90;;;4.50;;
40623;SDS011;26325;48.594;11.650;2022-09-25T16:29:58;4.65;;;4.35;;
40623;SDS011;26325;48.594;11.650;2022-09-25T16:32:26;5.50;;;5.00;;
40623;SDS011;26325;48.594;11.650;2022-09-25T16:34:58;5.03;;;4.50;;
40623;SDS011;26325;48.594;11.650;2022-09-25T16:37:29;4.20;;;3.90;;
40623;SDS011;26325;48.594;11.650;2022-09-25T16:42:43;4.25;;;3.92;;
40623;SDS011;26325;48.594;11.650;2022-09-25T16:47:46;4.30;;;4.00;;
40623;SDS011;26325;48.594;11.650;2022-09-25T16:52:39;4.18;;;3.88;;
40623;SDS011;26325;48.594;11.650;2022-09-25T17:00:14;4.30;;;4.00;;
40623;SDS011;26325;48.594;11.650;2022-09-25T17:02:43;4.20;;;3.90;;
40623;SDS011;26325;48.594;11.650;2022-09-25T17:05:18;4.18;;;3.88;;
40623;SDS011;26325;48.594;11.650;2022-09-25T17:07:49;4.10;;;3.80;;
40623;SDS011;26325;48.594;11.650;2022-09-25T17:10:21;3.83;;;3.50;;
40623;SDS011;26325;48.594;11.650;2022-09-25T17:12:49;3.70;;;3.50;;
40623;SDS011;26325;48.594;11.650;2022-09-25T17:15:36;3.75;;;3.45;;
40623;SDS011;26325;48.594;11.650;2022-09-25T17:18:05;3.70;;;3.40;;
40623;SDS011;26325;48.594;11.650;2022-09-25T17:20:36;5.00;;;4.60;;
40623;SDS011;26325;48.594;11.650;2022-09-25T17:28:12;4.03;;;3.72;;
40623;SDS011;26325;48.594;11.650;2022-09-25T17:30:40;3.88;;;3.58;;
40623;SDS011;26325;48.594;11.650;2022-09-25T17:33:15;4.63;;;4.25;;
40623;SDS011;26325;48.594;11.650;2022-09-25T17:38:17;4.72;;;4.35;;
40623;SDS011;26325;48.594;11.650;2022-09-25T17:40:45;4.00;;;3.70;;
40623;SDS011;26325;48.594;11.650;2022-09-25T17:43:13;4.60;;;4.20;;
40623;SDS011;26325;48.594;11.650;2022-09-25T17:45:56;4.28;;;3.97;;
40623;SDS011;26325;48.594;11.650;2022-09-25T17:48:26;4.38;;;3.97;;
40623;SDS011;26325;48.594;11.650;2022-09-25T17:50:55;4.60;;;4.20;;
40623;SDS011;26325;48.594;11.650;2022-09-25T17:53:24;4.50;;;4.10;;
40623;SDS011;26325;48.594;11.650;2022-09-25T17:55:55;4.25;;;3.92;;
40623;SDS011;26325;48.594;11.650;2022-09-25T17:58:22;4.43;;;4.03;;
40623;SDS011;26325;48.594;11.650;2022-09-25T18:00:49;4.47;;;4.07;;
40623;SDS011;26325;48.594;11.650;2022-09-25T18:03:15;4.35;;;4.05;;
40623;SDS011;26325;48.594;11.650;2022-09-25T18:08:08;4.30;;;4.00;;
40623;SDS011;26325;48.594;11.650;2022-09-25T18:10:37;4.63;;;4.22;;
40623;SDS011;26325;48.594;11.650;2022-09-25T18:13:04;4.90;;;4.50;;
40623;SDS011;26325;48.594;11.650;2022-09-25T18:15:33;4.13;;;3.72;;
40623;SDS011;26325;48.594;11.650;2022-09-25T18:18:01;4.28;;;3.97;;
40623;SDS011;26325;48.594;11.650;2022-09-25T18:20:29;3.80;;;3.50;;
40623;SDS011;26325;48.594;11.650;2022-09-25T18:23:13;3.92;;;3.63;;
40623;SDS011;26325;48.594;11.650;2022-09-25T18:28:06;4.25;;;3.83;;
40623;SDS011;26325;48.594;11.650;2022-09-25T18:30:32;4.22;;;3.80;;
40623;SDS011;26325;48.594;11.650;2022-09-25T18:32:58;4.40;;;4.00;;
40623;SDS011;26325;48.594;11.650;2022-09-25T18:35:26;3.97;;;3.67;;
40623;SDS011;26325;48.594;11.650;2022-09-25T18:40:18;6.53;;;4.20;;
40623;SDS011;26325;48.594;11.650;2022-09-25T18:42:45;3.90;;;3.40;;
40623;SDS011;26325;48.594;11.650;2022-09-25T18:45:13;4.53;;;4.13;;
40623;SDS011;26325;48.594;11.650;2022-09-25T18:47:39;4.15;;;3.85;;
40623;SDS011;26325;48.594;11.650;2022-09-25T18:50:06;4.18;;;3.88;;
40623;SDS011;26325;48.594;11.650;2022-09-25T18:52:32;4.20;;;3.90;;
40623;SDS011;26325;48.594;11.650;2022-09-25T18:57:26;4.50;;;4.10;;
40623;SDS011;26325;48.594;11.650;2022-09-25T18:59:53;3.85;;;3.60;;
40623;SDS011;26325;48.594;11.650;2022-09-25T19:02:27;3.83;;;3.53;;
40623;SDS011;26325;48.594;11.650;2022-09-25T19:04:55;5.30;;;4.90;;
40623;SDS011;26325;48.594;11.650;2022-09-25T19:07:26;6.22;;;5.70;;
40623;SDS011;26325;48.594;11.650;2022-09-25T19:09:52;5.47;;;5.07;;
40623;SDS011;26325;48.594;11.650;2022-09-25T19:12:19;5.28;;;4.88;;
40623;SDS011;26325;48.594;11.650;2022-09-25T19:14:46;5.40;;;4.90;;
40623;SDS011;26325;48.594;11.650;2022-09-25T19:17:16;4.80;;;4.50;;
40623;SDS011;26325;48.594;11.650;2022-09-25T19:19:43;5.60;;;4.80;;
40623;SDS011;26325;48.594;11.650;2022-09-25T19:22:19;5.50;;;5.00;;
40623;SDS011;26325;48.594;11.650;2022-09-25T19:24:45;5.80;;;5.30;;
40623;SDS011;26325;48.594;11.650;2022-09-25T19:27:15;5.93;;;5.43;;
40623;SDS011;26325;48.594;11.650;2022-09-25T19:29:44;5.80;;;5.30;;
40623;SDS011;26325;48.594;11.650;2022-09-25T19:34:38;5.45;;;5.05;;